sensor_id;sensor_type;location;lat;lon;timestamp;pressure;altitude;pressure_sealevel;temperature;humidity
21828;BME280;11076;47.942;11.804;2023-04-15T00:01:17;93284.16;;;3.66;100.00
21828;BME280;11076;47.942;11.804;2023-04-15T00:06:21;93274.59;;;3.71;100.00
21828;BME280;11076;47.942;11.804;2023-04-15T00:11:23;93275.59;;;3.64;100.00
21828;BME280;11076;47.942;11.804;2023-04-15T00:16:26;93283.53;;;3.57;100.00
21828;BME280;11076;47.942;11.804;2023-04-15T00:21:29;93267.28;;;3.53;100.00
21828;BME280;11076;47.942;11.804;2023-04-15T00:26:32;93262.81;;;3.61;100.00
21828;BME280;11076;47.942;11.804;2023-04-15T00:31:34;93261.97;;;3.60;100.00
21828;BME280;11076;47.942;11.804;2023-04-15T00:36:37;93266.66;;;3.58;100.00
21828;BME280;11076;47.942;11.804;2023-04-15T00:41:39;93260.38;;;3.59;100.00
21828;BME280;11076;47.942;11.804;2023-04-15T00:46:43;93255.91;;;3.66;100.00
21828;BME280;11076;47.942;11.804;2023-04-15T00:51:46;93252.22;;;3.67;100.00
21828;BME280;11076;47.942;11.804;2023-04-15T00:56:49;93249.19;;;3.70;100.00
21828;BME280;11076;47.942;11.804;2023-04-15T01:01:51;93240.25;;;3.65;100.00
21828;BME280;11076;47.942;11.804;2023-04-15T01:06:54;93245.72;;;3.63;100.00
21828;BME280;11076;47.942;11.804;2023-04-15T01:11:56;93241.25;;;3.64;100.00
21828;BME280;11076;47.942;11.804;2023-04-15T01:16:59;93248.56;;;3.62;100.00
21828;BME280;11076;47.942;11.804;2023-04-15T01:22:02;93240.84;;;3.60;100.00
21828;BME280;11076;47.942;11.804;2023-04-15T01:27:06;93241.47;;;3.62;100.00
21828;BME280;11076;47.942;11.804;2023-04-15T01:32:10;93250.00;;;3.64;100.00
21828;BME280;11076;47.942;11.804;2023-04-15T01:37:13;93253.25;;;3.66;100.00
21828;BME280;11076;47.942;11.804;2023-04-15T01:42:15;93249.38;;;3.69;100.00
21828;BME280;11076;47.942;11.804;2023-04-15T01:47:18;93244.50;;;3.72;100.00
21828;BME280;11076;47.942;11.804;2023-04-15T01:52:21;93255.47;;;3.76;100.00
21828;BME280;11076;47.942;11.804;2023-04-15T01:57:24;93260.56;;;3.77;100.00
21828;BME280;11076;47.942;11.804;2023-04-15T02:02:27;93251.63;;;3.78;100.00
21828;BME280;11076;47.942;11.804;2023-04-15T02:07:30;93251.00;;;3.76;100.00
21828;BME280;11076;47.942;11.804;2023-04-15T02:12:33;93249.78;;;3.79;100.00
21828;BME280;11076;47.942;11.804;2023-04-15T02:17:36;93252.63;;;3.77;100.00
21828;BME280;11076;47.942;11.804;2023-04-15T02:22:38;93243.88;;;3.84;100.00
21828;BME280;11076;47.942;11.804;2023-04-15T02:27:41;93249.38;;;3.89;100.00
21828;BME280;11076;47.942;11.804;2023-04-15T02:32:44;93249.38;;;3.89;100.00
21828;BME280;11076;47.942;11.804;2023-04-15T02:37:47;93239.59;;;3.89;100.00
21828;BME280;11076;47.942;11.804;2023-04-15T02:42:49;93235.94;;;3.90;100.00
21828;BME280;11076;47.942;11.804;2023-04-15T02:47:53;93234.72;;;3.86;100.00
21828;BME280;11076;47.942;11.804;2023-04-15T02:52:56;93237.16;;;3.81;100.00
21828;BME280;11076;47.942;11.804;2023-04-15T02:57:58;93238.81;;;3.82;100.00
21828;BME280;11076;47.942;11.804;2023-04-15T03:03:04;93238.00;;;3.88;100.00
21828;BME280;11076;47.942;11.804;2023-04-15T03:08:07;93241.66;;;3.94;100.00
21828;BME280;11076;47.942;11.804;2023-04-15T03:13:09;93237.16;;;3.94;100.00
21828;BME280;11076;47.942;11.804;2023-04-15T03:18:13;93237.97;;;3.95;100.00
21828;BME280;11076;47.942;11.804;2023-04-15T03:23:16;93247.34;;;3.91;100.00
21828;BME280;11076;47.942;11.804;2023-04-15T03:28:19;93249.97;;;3.91;100.00
21828;BME280;11076;47.942;11.804;2023-04-15T03:33:22;93249.97;;;3.91;100.00
21828;BME280;11076;47.942;11.804;2023-04-15T03:38:25;93252.00;;;3.89;100.00
21828;BME280;11076;47.942;11.804;2023-04-15T03:43:28;93248.94;;;3.92;100.00
21828;BME280;11076;47.942;11.804;2023-04-15T03:48:30;93250.56;;;3.93;100.00
21828;BME280;11076;47.942;11.804;2023-04-15T03:53:32;93243.25;;;3.95;100.00
21828;BME280;11076;47.942;11.804;2023-04-15T03:58:35;93248.53;;;3.95;100.00
21828;BME280;11076;47.942;11.804;2023-04-15T04:03:37;93251.19;;;3.95;100.00
21828;BME280;11076;47.942;11.804;2023-04-15T04:08:40;93255.03;;;3.99;100.00
21828;BME280;11076;47.942;11.804;2023-04-15T04:13:42;93258.69;;;4.05;100.00
21828;BME280;11076;47.942;11.804;2023-04-15T04:18:44;93269.31;;;3.98;100.00
21828;BME280;11076;47.942;11.804;2023-04-15T04:23:47;93259.69;;;4.04;100.00
21828;BME280;11076;47.942;11.804;2023-04-15T04:28:49;93262.16;;;4.05;100.00
21828;BME280;11076;47.942;11.804;2023-04-15T04:33:52;93268.47;;;4.04;100.00
21828;BME280;11076;47.942;11.804;2023-04-15T04:38:54;93263.19;;;4.04;100.00
21828;BME280;11076;47.942;11.804;2023-04-15T04:43:57;93258.91;;;4.03;100.00
21828;BME280;11076;47.942;11.804;2023-04-15T04:48:59;93266.84;;;4.03;100.00
21828;BME280;11076;47.942;11.804;2023-04-15T04:54:02;93268.88;;;4.01;100.00
21828;BME280;11076;47.942;11.804;2023-04-15T04:59:05;93279.44;;;4.01;100.00
21828;BME280;11076;47.942;11.804;2023-04-15T05:04:08;93272.94;;;4.10;100.00
21828;BME280;11076;47.942;11.804;2023-04-15T05:09:11;93272.09;;;4.10;100.00
21828;BME280;11076;47.942;11.804;2023-04-15T05:14:13;93275.75;;;4.15;100.00
21828;BME280;11076;47.942;11.804;2023-04-15T05:19:15;93273.53;;;4.19;100.00
21828;BME280;11076;47.942;11.804;2023-04-15T05:24:18;93268.84;;;4.14;100.00
21828;BME280;11076;47.942;11.804;2023-04-15T05:29:20;93274.94;;;4.22;100.00
21828;BME280;11076;47.942;11.804;2023-04-15T05:34:22;93265.97;;;4.29;100.00
21828;BME280;11076;47.942;11.804;2023-04-15T05:39:25;93266.78;;;4.30;100.00
21828;BME280;11076;47.942;11.804;2023-04-15T05:44:27;93274.31;;;4.33;100.00
21828;BME280;11076;47.942;11.804;2023-04-15T05:49:30;93281.00;;;4.35;100.00
21828;BME280;11076;47.942;11.804;2023-04-15T05:54:32;93283.00;;;4.53;100.00
21828;BME280;11076;47.942;11.804;2023-04-15T05:59:35;93281.75;;;4.63;100.00
21828;BME280;11076;47.942;11.804;2023-04-15T06:04:38;93282.50;;;4.76;100.00
21828;BME280;11076;47.942;11.804;2023-04-15T06:09:40;93273.91;;;4.88;100.00
21828;BME280;11076;47.942;11.804;2023-04-15T06:14:42;93274.66;;;5.02;100.00
21828;BME280;11076;47.942;11.804;2023-04-15T06:19:45;93274.81;;;5.07;100.00
21828;BME280;11076;47.942;11.804;2023-04-15T06:24:47;93272.53;;;5.17;99.89
21828;BME280;11076;47.942;11.804;2023-04-15T06:29:51;93264.09;;;5.33;100.00
21828;BME280;11076;47.942;11.804;2023-04-15T06:34:53;93277.22;;;5.47;99.92
21828;BME280;11076;47.942;11.804;2023-04-15T06:39:56;93277.81;;;5.49;96.06
21828;BME280;11076;47.942;11.804;2023-04-15T06:44:58;93273.75;;;5.78;95.48
21828;BME280;11076;47.942;11.804;2023-04-15T06:50:01;93276.84;;;6.00;94.14
21828;BME280;11076;47.942;11.804;2023-04-15T06:55:05;93270.19;;;6.16;93.18
21828;BME280;11076;47.942;11.804;2023-04-15T07:00:08;93275.44;;;6.41;92.18
21828;BME280;11076;47.942;11.804;2023-04-15T07:05:13;93266.91;;;6.39;91.07
21828;BME280;11076;47.942;11.804;2023-04-15T07:10:15;93279.34;;;6.38;86.29
21828;BME280;11076;47.942;11.804;2023-04-15T07:15:18;93275.69;;;6.76;87.38
21828;BME280;11076;47.942;11.804;2023-04-15T07:20:20;93273.19;;;7.12;85.26
21828;BME280;11076;47.942;11.804;2023-04-15T07:25:23;93282.19;;;7.11;82.47
21828;BME280;11076;47.942;11.804;2023-04-15T07:30:25;93270.94;;;7.27;80.87
21828;BME280;11076;47.942;11.804;2023-04-15T07:35:27;93277.78;;;7.35;80.27
21828;BME280;11076;47.942;11.804;2023-04-15T07:40:30;93293.84;;;7.28;81.24
21828;BME280;11076;47.942;11.804;2023-04-15T07:45:33;93304.66;;;7.45;81.60
21828;BME280;11076;47.942;11.804;2023-04-15T07:50:36;93304.34;;;7.65;80.21
21828;BME280;11076;47.942;11.804;2023-04-15T07:55:39;93289.53;;;8.35;78.44
21828;BME280;11076;47.942;11.804;2023-04-15T08:00:41;93282.09;;;8.84;77.01
21828;BME280;11076;47.942;11.804;2023-04-15T08:05:44;93278.28;;;8.80;73.73
21828;BME280;11076;47.942;11.804;2023-04-15T08:10:46;93272.84;;;8.63;73.76
21828;BME280;11076;47.942;11.804;2023-04-15T08:16:12;93261.88;;;8.71;74.79
21828;BME280;11076;47.942;11.804;2023-04-15T08:21:15;93274.84;;;8.68;72.77
21828;BME280;11076;47.942;11.804;2023-04-15T08:26:18;93281.69;;;8.64;71.94
21828;BME280;11076;47.942;11.804;2023-04-15T08:31:21;93288.63;;;9.17;70.73
21828;BME280;11076;47.942;11.804;2023-04-15T08:36:24;93289.09;;;9.43;69.91
21828;BME280;11076;47.942;11.804;2023-04-15T08:41:37;93295.41;;;9.36;69.13
21828;BME280;11076;47.942;11.804;2023-04-15T08:46:41;93295.47;;;9.13;69.04
21828;BME280;11076;47.942;11.804;2023-04-15T08:51:43;93291.03;;;9.30;68.20
21828;BME280;11076;47.942;11.804;2023-04-15T08:56:46;93300.97;;;9.35;67.69
21828;BME280;11076;47.942;11.804;2023-04-15T09:01:50;93298.47;;;9.57;68.17
21828;BME280;11076;47.942;11.804;2023-04-15T09:06:53;93304.41;;;9.47;67.97
21828;BME280;11076;47.942;11.804;2023-04-15T09:11:55;93304.91;;;9.04;67.13
21828;BME280;11076;47.942;11.804;2023-04-15T09:17:00;93304.78;;;8.99;68.38
21828;BME280;11076;47.942;11.804;2023-04-15T09:22:03;93308.19;;;8.82;69.17
21828;BME280;11076;47.942;11.804;2023-04-15T09:27:08;93312.31;;;9.02;69.54
21828;BME280;11076;47.942;11.804;2023-04-15T09:32:14;93314.72;;;9.15;68.23
21828;BME280;11076;47.942;11.804;2023-04-15T09:37:34;93315.00;;;9.02;67.41
21828;BME280;11076;47.942;11.804;2023-04-15T09:42:53;93317.84;;;9.12;68.23
21828;BME280;11076;47.942;11.804;2023-04-15T09:48:21;93319.72;;;9.11;67.02
21828;BME280;11076;47.942;11.804;2023-04-15T09:53:25;93322.13;;;9.13;67.45
21828;BME280;11076;47.942;11.804;2023-04-15T09:58:31;93321.09;;;9.14;65.38
21828;BME280;11076;47.942;11.804;2023-04-15T10:03:34;93326.28;;;9.21;65.32
21828;BME280;11076;47.942;11.804;2023-04-15T10:08:40;93330.13;;;9.13;66.29
21828;BME280;11076;47.942;11.804;2023-04-15T10:13:43;93330.75;;;9.03;66.31
21828;BME280;11076;47.942;11.804;2023-04-15T10:18:50;93340.63;;;8.79;66.78
21828;BME280;11076;47.942;11.804;2023-04-15T10:23:55;93354.38;;;8.41;61.84
21828;BME280;11076;47.942;11.804;2023-04-15T10:28:59;93335.72;;;8.29;62.59
21828;BME280;11076;47.942;11.804;2023-04-15T10:34:03;93341.41;;;8.32;62.89
21828;BME280;11076;47.942;11.804;2023-04-15T10:44:41;93353.75;;;8.15;63.05
21828;BME280;11076;47.942;11.804;2023-04-15T10:49:46;93349.88;;;8.41;64.83
21828;BME280;11076;47.942;11.804;2023-04-15T10:55:01;93342.47;;;8.90;63.41
21828;BME280;11076;47.942;11.804;2023-04-15T11:05:11;93344.50;;;10.10;62.71
21828;BME280;11076;47.942;11.804;2023-04-15T11:15:32;93351.63;;;10.21;60.29
21828;BME280;11076;47.942;11.804;2023-04-15T11:25:42;93351.13;;;10.07;58.38
21828;BME280;11076;47.942;11.804;2023-04-15T11:30:44;93350.28;;;9.90;58.75
21828;BME280;11076;47.942;11.804;2023-04-15T11:35:47;93364.38;;;10.02;58.86
21828;BME280;11076;47.942;11.804;2023-04-15T11:40:50;93346.47;;;10.48;58.61
21828;BME280;11076;47.942;11.804;2023-04-15T11:45:55;93349.31;;;10.42;59.04
21828;BME280;11076;47.942;11.804;2023-04-15T11:51:05;93351.44;;;10.57;59.64
21828;BME280;11076;47.942;11.804;2023-04-15T11:56:09;93352.25;;;10.28;59.70
21828;BME280;11076;47.942;11.804;2023-04-15T12:01:13;93354.53;;;10.20;59.85
21828;BME280;11076;47.942;11.804;2023-04-15T12:06:17;93360.41;;;9.88;60.19
21828;BME280;11076;47.942;11.804;2023-04-15T12:11:27;93368.91;;;9.44;60.49
21828;BME280;11076;47.942;11.804;2023-04-15T12:16:36;93368.56;;;9.81;59.87
21828;BME280;11076;47.942;11.804;2023-04-15T12:21:41;93374.50;;;9.71;59.14
21828;BME280;11076;47.942;11.804;2023-04-15T12:26:47;93378.28;;;9.47;61.19
21828;BME280;11076;47.942;11.804;2023-04-15T12:31:52;93385.69;;;9.04;62.42
21828;BME280;11076;47.942;11.804;2023-04-15T12:36:55;93393.34;;;8.65;64.64
21828;BME280;11076;47.942;11.804;2023-04-15T12:41:58;93405.31;;;8.32;68.66
21828;BME280;11076;47.942;11.804;2023-04-15T12:47:01;93405.06;;;8.22;70.89
21828;BME280;11076;47.942;11.804;2023-04-15T12:52:04;93420.09;;;8.16;72.60
21828;BME280;11076;47.942;11.804;2023-04-15T12:57:06;93427.09;;;7.99;73.92
21828;BME280;11076;47.942;11.804;2023-04-15T13:02:09;93439.06;;;7.78;75.06
21828;BME280;11076;47.942;11.804;2023-04-15T13:07:12;93434.97;;;7.75;76.61
21828;BME280;11076;47.942;11.804;2023-04-15T13:12:16;93444.53;;;7.65;75.35
21828;BME280;11076;47.942;11.804;2023-04-15T13:17:19;93447.03;;;7.60;75.35
21828;BME280;11076;47.942;11.804;2023-04-15T13:22:23;93452.91;;;7.68;77.33
21828;BME280;11076;47.942;11.804;2023-04-15T13:27:25;93444.31;;;8.27;77.19
21828;BME280;11076;47.942;11.804;2023-04-15T13:32:28;93449.44;;;9.06;74.94
21828;BME280;11076;47.942;11.804;2023-04-15T13:37:31;93448.03;;;9.91;73.02
21828;BME280;11076;47.942;11.804;2023-04-15T13:42:33;93462.53;;;10.24;71.93
21828;BME280;11076;47.942;11.804;2023-04-15T13:47:36;93468.69;;;9.84;71.93
21828;BME280;11076;47.942;11.804;2023-04-15T13:52:38;93472.03;;;9.15;71.71
21828;BME280;11076;47.942;11.804;2023-04-15T13:57:41;93472.16;;;8.96;71.15
21828;BME280;11076;47.942;11.804;2023-04-15T14:02:44;93479.09;;;8.86;70.74
21828;BME280;11076;47.942;11.804;2023-04-15T14:07:47;93481.75;;;8.74;71.86
21828;BME280;11076;47.942;11.804;2023-04-15T14:12:50;93487.75;;;8.58;72.44
21828;BME280;11076;47.942;11.804;2023-04-15T14:17:53;93481.59;;;8.57;73.39
21828;BME280;11076;47.942;11.804;2023-04-15T14:22:56;93493.09;;;8.39;73.85
21828;BME280;11076;47.942;11.804;2023-04-15T14:27:59;93499.69;;;8.36;74.26
21828;BME280;11076;47.942;11.804;2023-04-15T14:33:02;93506.69;;;8.49;74.86
21828;BME280;11076;47.942;11.804;2023-04-15T14:38:05;93514.84;;;8.54;75.52
21828;BME280;11076;47.942;11.804;2023-04-15T14:43:12;93525.59;;;8.29;73.20
21828;BME280;11076;47.942;11.804;2023-04-15T14:48:15;93535.75;;;8.21;75.34
21828;BME280;11076;47.942;11.804;2023-04-15T14:53:18;93536.44;;;8.16;73.37
21828;BME280;11076;47.942;11.804;2023-04-15T14:58:20;93542.53;;;8.35;73.49
21828;BME280;11076;47.942;11.804;2023-04-15T15:03:23;93546.31;;;8.46;71.28
21828;BME280;11076;47.942;11.804;2023-04-15T15:08:25;93553.19;;;8.53;68.33
21828;BME280;11076;47.942;11.804;2023-04-15T15:13:28;93555.47;;;8.80;68.21
21828;BME280;11076;47.942;11.804;2023-04-15T15:18:30;93563.56;;;8.73;68.62
21828;BME280;11076;47.942;11.804;2023-04-15T15:23:33;93566.03;;;8.99;68.22
21828;BME280;11076;47.942;11.804;2023-04-15T15:28:35;93567.66;;;9.00;67.30
21828;BME280;11076;47.942;11.804;2023-04-15T15:33:38;93580.56;;;8.72;66.59
21828;BME280;11076;47.942;11.804;2023-04-15T15:38:40;93589.53;;;8.48;68.41
21828;BME280;11076;47.942;11.804;2023-04-15T15:43:43;93598.00;;;8.20;69.54
21828;BME280;11076;47.942;11.804;2023-04-15T15:48:45;93604.13;;;7.90;69.32
21828;BME280;11076;47.942;11.804;2023-04-15T15:53:48;93617.88;;;7.62;72.00
21828;BME280;11076;47.942;11.804;2023-04-15T15:58:50;93616.06;;;7.37;73.20
21828;BME280;11076;47.942;11.804;2023-04-15T16:03:52;93626.88;;;7.17;75.89
21828;BME280;11076;47.942;11.804;2023-04-15T16:08:55;93635.84;;;7.16;77.89
21828;BME280;11076;47.942;11.804;2023-04-15T16:13:57;93645.59;;;7.29;79.10
21828;BME280;11076;47.942;11.804;2023-04-15T16:18:59;93658.28;;;7.27;81.31
21828;BME280;11076;47.942;11.804;2023-04-15T16:24:02;93662.16;;;6.99;84.77
21828;BME280;11076;47.942;11.804;2023-04-15T16:29:04;93669.28;;;6.67;88.78
21828;BME280;11076;47.942;11.804;2023-04-15T16:34:07;93674.25;;;6.56;89.44
21828;BME280;11076;47.942;11.804;2023-04-15T16:39:10;93679.47;;;6.25;91.17
21828;BME280;11076;47.942;11.804;2023-04-15T16:44:12;93687.25;;;6.20;91.22
21828;BME280;11076;47.942;11.804;2023-04-15T16:49:15;93689.28;;;6.17;91.44
21828;BME280;11076;47.942;11.804;2023-04-15T16:54:17;93694.03;;;5.95;92.80
21828;BME280;11076;47.942;11.804;2023-04-15T16:59:19;93704.63;;;5.89;92.86
21828;BME280;11076;47.942;11.804;2023-04-15T17:04:22;93699.75;;;5.86;93.81
21828;BME280;11076;47.942;11.804;2023-04-15T17:09:24;93709.13;;;5.82;94.33
21828;BME280;11076;47.942;11.804;2023-04-15T17:14:27;93715.25;;;5.75;95.14
21828;BME280;11076;47.942;11.804;2023-04-15T17:19:32;93725.66;;;5.64;95.52
21828;BME280;11076;47.942;11.804;2023-04-15T17:24:34;93734.84;;;5.61;95.72
21828;BME280;11076;47.942;11.804;2023-04-15T17:29:37;93742.59;;;5.56;96.64
21828;BME280;11076;47.942;11.804;2023-04-15T17:34:39;93753.78;;;5.45;98.37
21828;BME280;11076;47.942;11.804;2023-04-15T17:39:42;93756.03;;;5.34;98.87
21828;BME280;11076;47.942;11.804;2023-04-15T17:44:44;93763.78;;;5.36;98.57
21828;BME280;11076;47.942;11.804;2023-04-15T17:49:47;93774.97;;;5.25;100.00
21828;BME280;11076;47.942;11.804;2023-04-15T17:54:50;93775.97;;;5.17;100.00
21828;BME280;11076;47.942;11.804;2023-04-15T17:59:52;93783.09;;;5.10;100.00
21828;BME280;11076;47.942;11.804;2023-04-15T18:04:54;93789.78;;;4.99;100.00
21828;BME280;11076;47.942;11.804;2023-04-15T18:09:57;93793.84;;;4.95;100.00
21828;BME280;11076;47.942;11.804;2023-04-15T18:14:59;93801.38;;;4.91;100.00
21828;BME280;11076;47.942;11.804;2023-04-15T18:20:02;93800.38;;;4.92;100.00
21828;BME280;11076;47.942;11.804;2023-04-15T18:25:05;93805.66;;;4.92;100.00
21828;BME280;11076;47.942;11.804;2023-04-15T18:30:09;93830.06;;;4.81;100.00
21828;BME280;11076;47.942;11.804;2023-04-15T18:35:12;93839.03;;;4.80;100.00
21828;BME280;11076;47.942;11.804;2023-04-15T18:40:15;93842.91;;;4.77;100.00
21828;BME280;11076;47.942;11.804;2023-04-15T18:45:17;93850.63;;;4.79;100.00
21828;BME280;11076;47.942;11.804;2023-04-15T18:50:20;93861.47;;;4.84;100.00
21828;BME280;11076;47.942;11.804;2023-04-15T18:55:22;93864.28;;;4.76;100.00
21828;BME280;11076;47.942;11.804;2023-04-15T19:00:24;93870.00;;;4.80;100.00
21828;BME280;11076;47.942;11.804;2023-04-15T19:05:28;93874.47;;;4.79;100.00
21828;BME280;11076;47.942;11.804;2023-04-15T19:10:33;93883.81;;;4.75;100.00
21828;BME280;11076;47.942;11.804;2023-04-15T19:15:35;93885.47;;;4.76;100.00
21828;BME280;11076;47.942;11.804;2023-04-15T19:20:38;93891.94;;;4.73;100.00
21828;BME280;11076;47.942;11.804;2023-04-15T19:25:41;93891.09;;;4.66;100.00
21828;BME280;11076;47.942;11.804;2023-04-15T19:30:43;93906.56;;;4.63;100.00
21828;BME280;11076;47.942;11.804;2023-04-15T19:35:45;93910.59;;;4.58;100.00
21828;BME280;11076;47.942;11.804;2023-04-15T19:40:50;93910.59;;;4.58;100.00
21828;BME280;11076;47.942;11.804;2023-04-15T19:45:53;93916.50;;;4.54;100.00
21828;BME280;11076;47.942;11.804;2023-04-15T19:50:56;93926.00;;;4.48;100.00
21828;BME280;11076;47.942;11.804;2023-04-15T19:55:58;93922.56;;;4.48;100.00
21828;BME280;11076;47.942;11.804;2023-04-15T20:01:01;93925.63;;;4.51;100.00
21828;BME280;11076;47.942;11.804;2023-04-15T20:06:03;93933.78;;;4.50;100.00
21828;BME280;11076;47.942;11.804;2023-04-15T20:11:07;93929.72;;;4.54;100.00
21828;BME280;11076;47.942;11.804;2023-04-15T20:16:09;93937.84;;;4.52;100.00
21828;BME280;11076;47.942;11.804;2023-04-15T20:21:13;93947.03;;;4.56;100.00
21828;BME280;11076;47.942;11.804;2023-04-15T20:26:15;93944.78;;;4.53;100.00
21828;BME280;11076;47.942;11.804;2023-04-15T20:31:20;93948.00;;;4.49;100.00
21828;BME280;11076;47.942;11.804;2023-04-15T20:36:23;93953.75;;;4.52;100.00
21828;BME280;11076;47.942;11.804;2023-04-15T20:41:25;93957.78;;;4.48;100.00
21828;BME280;11076;47.942;11.804;2023-04-15T20:46:27;93965.56;;;4.56;100.00
21828;BME280;11076;47.942;11.804;2023-04-15T20:51:30;93962.75;;;4.58;100.00
21828;BME280;11076;47.942;11.804;2023-04-15T20:56:38;93974.16;;;4.58;100.00
21828;BME280;11076;47.942;11.804;2023-04-15T21:01:40;93979.41;;;4.52;100.00
21828;BME280;11076;47.942;11.804;2023-04-15T21:06:43;93979.94;;;4.47;100.00
21828;BME280;11076;47.942;11.804;2023-04-15T21:11:46;93991.56;;;4.46;100.00
21828;BME280;11076;47.942;11.804;2023-04-15T21:17:00;93981.84;;;4.53;100.00
21828;BME280;11076;47.942;11.804;2023-04-15T21:22:08;93996.31;;;4.57;100.00
21828;BME280;11076;47.942;11.804;2023-04-15T21:27:11;93998.34;;;4.55;100.00
21828;BME280;11076;47.942;11.804;2023-04-15T21:32:13;94009.19;;;4.61;100.00
21828;BME280;11076;47.942;11.804;2023-04-15T21:37:16;94019.78;;;4.61;100.00
21828;BME280;11076;47.942;11.804;2023-04-15T21:42:18;94011.47;;;4.64;100.00
21828;BME280;11076;47.942;11.804;2023-04-15T21:47:20;94010.22;;;4.60;100.00
21828;BME280;11076;47.942;11.804;2023-04-15T21:52:23;94018.53;;;4.56;100.00
21828;BME280;11076;47.942;11.804;2023-04-15T21:57:25;94026.66;;;4.55;100.00
21828;BME280;11076;47.942;11.804;2023-04-15T22:02:27;94029.38;;;4.62;100.00
21828;BME280;11076;47.942;11.804;2023-04-15T22:07:30;94037.69;;;4.58;100.00
21828;BME280;11076;47.942;11.804;2023-04-15T22:12:32;94035.22;;;4.57;100.00
21828;BME280;11076;47.942;11.804;2023-04-15T22:17:34;94039.22;;;4.46;100.00
21828;BME280;11076;47.942;11.804;2023-04-15T22:22:37;94037.97;;;4.42;100.00
21828;BME280;11076;47.942;11.804;2023-04-15T22:27:39;94052.44;;;4.46;100.00
21828;BME280;11076;47.942;11.804;2023-04-15T22:32:42;94051.69;;;4.52;100.00
21828;BME280;11076;47.942;11.804;2023-04-15T22:37:44;94054.28;;;4.46;100.00
21828;BME280;11076;47.942;11.804;2023-04-15T22:42:47;94061.16;;;4.40;100.00
21828;BME280;11076;47.942;11.804;2023-04-15T22:47:49;94059.91;;;4.36;100.00
21828;BME280;11076;47.942;11.804;2023-04-15T22:52:51;94066.94;;;4.29;100.00
21828;BME280;11076;47.942;11.804;2023-04-15T22:57:54;94077.69;;;4.27;100.00
21828;BME280;11076;47.942;11.804;2023-04-15T23:02:57;94081.25;;;4.34;100.00
21828;BME280;11076;47.942;11.804;2023-04-15T23:07:59;94066.44;;;4.40;100.00
21828;BME280;11076;47.942;11.804;2023-04-15T23:13:02;94075.22;;;4.26;100.00
21828;BME280;11076;47.942;11.804;2023-04-15T23:18:04;94075.75;;;4.14;100.00
21828;BME280;11076;47.942;11.804;2023-04-15T23:23:06;94079.03;;;4.02;100.00
21828;BME280;11076;47.942;11.804;2023-04-15T23:28:09;94075.13;;;3.97;100.00
21828;BME280;11076;47.942;11.804;2023-04-15T23:33:11;94078.16;;;3.94;100.00
21828;BME280;11076;47.942;11.804;2023-04-15T23:38:13;94083.00;;;3.91;100.00
21828;BME280;11076;47.942;11.804;2023-04-15T23:43:16;94091.56;;;3.93;100.00
21828;BME280;11076;47.942;11.804;2023-04-15T23:48:18;94098.41;;;3.87;100.00
21828;BME280;11076;47.942;11.804;2023-04-15T23:53:24;94092.31;;;3.87;100.00
21828;BME280;11076;47.942;11.804;2023-04-15T23:58:26;94088.41;;;3.83;100.00
